Time;durP1;ratioP1;P1;durP2;ratioP2;P2;SDS_P1;SDS_P2;PMS_P1;PMS_P2;Temp;Humidity;BMP_temperature;BMP_pressure;BME280_temperature;BME280_humidity;BME280_pressure;Samples;Min_cycle;Max_cycle;Signal;HPM_P1;HPM_P2
2022/09/16 00:03:15;;;;;;;8.15;1.45;;;;;;;14.76;97.38;100115.78;8298217;28;20481;-50
2022/09/16 00:07:15;;;;;;;9.02;1.48;;;;;;;14.70;98.05;100108.31;8295439;28;20046;-50
2022/09/16 00:11:17;;;;;;;8.50;1.13;;;;;;;14.66;97.95;100104.25;8297441;28;20099;-49
2022/09/16 00:15:17;;;;;;;9.75;1.27;;;;;;;14.63;98.29;100101.88;8297819;28;20093;-49
2022/09/16 00:19:18;;;;;;;6.80;1.90;;;;;;;14.62;99.07;100105.66;8297699;28;20041;-50
2022/09/16 00:23:18;;;;;;;9.63;1.30;;;;;;;14.67;98.73;100108.66;8288196;28;20096;-52
2022/09/16 00:27:19;;;;;;;5.32;1.30;;;;;;;14.69;98.15;100103.91;8289933;28;20045;-51
2022/09/16 00:31:19;;;;;;;8.63;1.35;;;;;;;14.73;98.33;100102.50;8294303;28;20069;-52
2022/09/16 00:35:21;;;;;;;8.82;1.55;;;;;;;14.70;99.62;100093.88;8297351;28;20061;-51
2022/09/16 00:39:22;;;;;;;5.05;1.55;;;;;;;14.60;98.77;100094.06;8297151;28;20034;-49
2022/09/16 00:43:22;;;;;;;7.60;1.52;;;;;;;14.57;99.91;100099.00;8297344;28;20553;-50
2022/09/16 00:47:34;;;;;;;9.85;1.95;;;;;;;14.54;99.85;100092.06;8292589;28;20038;-49
2022/09/16 00:51:35;;;;;;;3.95;1.25;;;;;;;14.48;99.96;100106.38;8296963;28;20125;-49
2022/09/16 00:55:37;;;;;;;9.93;1.73;;;;;;;14.46;100.00;100103.00;8287577;28;20034;-49
2022/09/16 00:59:41;;;;;;;12.32;2.00;;;;;;;14.42;100.00;100107.06;8296065;28;20033;-50
2022/09/16 01:03:50;;;;;;;7.45;1.60;;;;;;;14.44;100.00;100107.75;8296752;28;20034;-49
2022/09/16 01:07:53;;;;;;;10.32;1.30;;;;;;;14.51;100.00;100106.00;8295328;28;20045;-49
2022/09/16 01:11:54;;;;;;;6.53;1.58;;;;;;;14.46;100.00;100108.44;8296434;28;20573;-52
2022/09/16 01:16:05;;;;;;;8.73;1.85;;;;;;;14.46;100.00;100091.25;8296825;28;20414;-49
2022/09/16 01:20:39;;;;;;;6.85;1.30;;;;;;;14.44;100.00;100088.72;8292532;28;20495;-48
2022/09/16 01:25:09;;;;;;;9.50;1.50;;;;;;;14.47;100.00;100110.13;8295587;28;20034;-49
2022/09/16 01:29:35;;;;;;;10.95;2.00;;;;;;;14.33;100.00;100097.22;8295274;28;20046;-53
2022/09/16 01:33:51;;;;;;;5.43;2.28;;;;;;;14.29;100.00;100106.78;8295684;28;20069;-51
2022/09/16 01:43:03;;;;;;;7.18;2.00;;;;;;;14.39;100.00;100096.53;8334346;27;20392;-50
2022/09/16 01:47:13;;;;;;;5.63;1.88;;;;;;;14.41;100.00;100094.50;8320584;28;20529;-48
2022/09/16 01:51:38;;;;;;;8.38;2.10;;;;;;;14.43;100.00;100103.34;8321287;28;20073;-49
2022/09/16 01:55:46;;;;;;;12.10;2.15;;;;;;;14.43;100.00;100100.63;8316212;28;20076;-49
2022/09/16 01:59:56;;;;;;;10.48;2.20;;;;;;;14.41;100.00;100089.06;8316502;28;20085;-48
2022/09/16 02:04:04;;;;;;;11.40;2.15;;;;;;;14.38;100.00;100100.28;8317106;28;20033;-50
2022/09/16 02:08:10;;;;;;;4.95;2.00;;;;;;;14.34;100.00;100098.94;8319090;28;20052;-49
2022/09/16 02:12:19;;;;;;;8.05;2.42;;;;;;;14.30;100.00;100097.59;8320397;28;20040;-51
2022/09/16 02:16:27;;;;;;;9.70;2.95;;;;;;;14.28;100.00;100087.91;8320036;28;20037;-49
2022/09/16 02:20:30;;;;;;;6.93;1.90;;;;;;;14.36;100.00;100086.00;8319885;28;20045;-49
2022/09/16 02:24:32;;;;;;;12.45;2.63;;;;;;;14.49;100.00;100086.28;8319745;28;20083;-50
2022/09/16 02:28:37;;;;;;;9.68;2.45;;;;;;;14.52;100.00;100088.66;8319478;28;20029;-49
2022/09/16 02:32:45;;;;;;;16.23;2.15;;;;;;;14.42;100.00;100085.31;8319870;28;20041;-51
2022/09/16 02:36:55;;;;;;;12.18;2.10;;;;;;;14.41;100.00;100080.91;8319828;28;20491;-48
2022/09/16 02:40:58;;;;;;;6.65;2.25;;;;;;;14.37;100.00;100086.88;8318336;28;20045;-52
2022/09/16 02:45:01;;;;;;;9.20;2.20;;;;;;;14.29;100.00;100076.88;8318935;28;20526;-49
2022/09/16 02:49:13;;;;;;;10.63;2.38;;;;;;;14.32;100.00;100081.94;8336759;28;20429;-50
2022/09/16 02:53:37;;;;;;;11.32;2.00;;;;;;;14.40;100.00;100081.94;8333007;28;20033;-52
2022/09/16 02:57:37;;;;;;;12.82;2.35;;;;;;;14.39;100.00;100080.22;8296748;28;20076;-47
2022/09/16 03:01:41;;;;;;;11.35;2.70;;;;;;;14.33;100.00;100080.09;8297057;28;20049;-49
2022/09/16 03:06:05;;;;;;;9.43;1.85;;;;;;;14.33;100.00;100080.91;8297138;28;20038;-49
2022/09/16 03:10:09;;;;;;;8.48;1.92;;;;;;;14.33;100.00;100074.66;8296267;28;20030;-48
2022/09/16 03:14:47;;;;;;;10.38;2.65;;;;;;;14.26;100.00;100069.06;8296712;28;20522;-48
2022/09/16 03:19:17;;;;;;;9.82;1.90;;;;;;;14.17;100.00;100075.50;8291309;28;20120;-48
2022/09/16 03:23:43;;;;;;;5.72;1.48;;;;;;;14.14;100.00;100059.53;8284979;28;20046;-50
2022/09/16 03:27:50;;;;;;;9.90;1.75;;;;;;;14.09;100.00;100070.06;8295760;28;20034;-49
2022/09/16 03:32:01;;;;;;;9.02;2.45;;;;;;;14.05;100.00;100060.59;8326649;28;20091;-48
2022/09/16 03:36:04;;;;;;;8.55;2.30;;;;;;;14.10;100.00;100069.06;8360733;28;20034;-49
2022/09/16 03:40:09;;;;;;;13.43;2.67;;;;;;;14.12;100.00;100061.56;8327865;28;20499;-49
2022/09/16 03:44:10;;;;;;;14.38;1.92;;;;;;;14.05;100.00;100055.16;8328812;28;20053;-48
2022/09/16 03:48:12;;;;;;;7.80;1.48;;;;;;;13.95;100.00;100054.50;8327940;28;20033;-48
2022/09/16 03:52:12;;;;;;;8.63;2.00;;;;;;;13.97;100.00;100055.19;8328235;28;20034;-47
2022/09/16 03:56:13;;;;;;;14.68;3.22;;;;;;;13.99;100.00;100055.84;8327496;28;20572;-48
2022/09/16 04:00:14;;;;;;;9.75;1.73;;;;;;;14.02;100.00;100044.63;8326801;28;20491;-48
2022/09/16 04:04:15;;;;;;;14.75;1.58;;;;;;;14.02;100.00;100050.06;8317666;28;20407;-47
2022/09/16 04:08:15;;;;;;;7.45;1.40;;;;;;;14.02;100.00;100043.75;8314878;28;20133;-49
2022/09/16 04:12:16;;;;;;;11.05;1.63;;;;;;;14.02;100.00;100039.19;8312963;28;20049;-48
2022/09/16 04:16:20;;;;;;;9.25;1.52;;;;;;;13.98;100.00;100040.56;8309151;28;20034;-48
2022/09/16 04:20:20;;;;;;;7.40;1.35;;;;;;;13.94;100.00;100035.66;8319770;28;20566;-48
2022/09/16 04:24:20;;;;;;;5.45;1.48;;;;;;;13.83;100.00;100034.16;8318096;28;20518;-48
2022/09/16 04:28:21;;;;;;;14.75;2.17;;;;;;;13.74;100.00;100040.59;8297296;28;20128;-48
2022/09/16 04:32:22;;;;;;;12.43;1.83;;;;;;;13.60;100.00;100034.00;8322729;28;20035;-50
2022/09/16 04:36:23;;;;;;;10.70;1.30;;;;;;;13.54;100.00;100033.84;8322599;28;20110;-47
2022/09/16 04:40:23;;;;;;;16.20;2.42;;;;;;;13.46;100.00;100044.72;8313349;28;20061;-48
2022/09/16 04:44:25;;;;;;;8.77;1.80;;;;;;;13.44;100.00;100049.47;8290539;28;20592;-48
2022/09/16 04:48:27;;;;;;;15.27;2.13;;;;;;;13.50;100.00;100055.06;8307459;28;20082;-48
2022/09/16 04:52:29;;;;;;;9.43;1.60;;;;;;;13.59;100.00;100047.75;8323021;28;20034;-47
2022/09/16 04:56:31;;;;;;;8.00;1.50;;;;;;;13.59;100.00;100045.03;8285366;28;20573;-48
2022/09/16 05:00:31;;;;;;;8.63;1.50;;;;;;;13.65;100.00;100052.50;8285575;28;20034;-51
2022/09/16 05:04:32;;;;;;;5.53;1.38;;;;;;;13.66;100.00;100055.06;8289621;28;20117;-47
2022/09/16 05:08:34;;;;;;;7.05;1.70;;;;;;;13.74;100.00;100040.59;8288383;28;20042;-49
2022/09/16 05:12:34;;;;;;;6.60;1.27;;;;;;;13.79;100.00;100044.50;8285568;28;20133;-47
2022/09/16 05:16:35;;;;;;;9.57;2.08;;;;;;;13.82;100.00;100043.31;8286656;28;20879;-47
2022/09/16 05:20:36;;;;;;;7.40;0.98;;;;;;;13.87;100.00;100046.34;8285570;28;20034;-49
2022/09/16 05:24:36;;;;;;;9.18;1.33;;;;;;;13.90;100.00;100046.00;8283700;28;20133;-50
2022/09/16 05:28:38;;;;;;;11.43;1.30;;;;;;;13.92;99.80;100043.97;8278076;28;20042;-48
2022/09/16 05:32:38;;;;;;;8.48;1.25;;;;;;;14.27;98.28;100049.00;8285221;28;20287;-49
2022/09/16 05:36:42;;;;;;;7.68;1.17;;;;;;;14.05;98.65;100055.16;8278900;28;20046;-52
2022/09/16 05:40:42;;;;;;;6.67;1.30;;;;;;;14.02;98.38;100060.94;8275557;28;20113;-52
2022/09/16 05:44:43;;;;;;;4.23;1.10;;;;;;;14.10;97.89;100058.19;8266199;28;20279;-49
2022/09/16 05:48:43;;;;;;;9.60;1.25;;;;;;;14.18;97.64;100063.59;8304734;28;20382;-49
2022/09/16 05:52:44;;;;;;;11.10;1.33;;;;;;;14.25;97.15;100055.63;8298526;28;20049;-50
2022/09/16 05:56:45;;;;;;;7.05;1.20;;;;;;;14.21;96.38;100060.53;8287381;28;20112;-50
2022/09/16 06:00:46;;;;;;;9.27;1.25;;;;;;;14.28;96.79;100056.16;8288181;28;20530;-48
2022/09/16 06:04:46;;;;;;;4.85;1.42;;;;;;;14.38;97.07;100058.63;8288153;28;20471;-50
2022/09/16 06:08:48;;;;;;;7.10;1.20;;;;;;;14.40;95.02;100065.63;8288191;28;20065;-50
2022/09/16 06:12:48;;;;;;;10.13;1.20;;;;;;;14.43;94.96;100065.25;8287451;28;20042;-50
2022/09/16 06:16:48;;;;;;;9.68;1.95;;;;;;;14.43;94.79;100065.25;8288152;28;20682;-48
2022/09/16 06:20:49;;;;;;;12.23;1.65;;;;;;;14.44;94.35;100066.94;8284852;28;20610;-48
2022/09/16 06:24:50;;;;;;;5.13;1.48;;;;;;;14.39;94.35;100066.63;8287907;28;20129;-48
2022/09/16 06:28:51;;;;;;;9.27;1.45;;;;;;;14.38;94.06;100070.38;8292303;28;20088;-48
2022/09/16 06:32:52;;;;;;;9.75;1.25;;;;;;;14.38;93.84;100064.94;8290280;28;20041;-49
2022/09/16 06:36:52;;;;;;;9.03;1.30;;;;;;;14.46;94.34;100064.91;8293207;28;20095;-48
2022/09/16 06:40:57;;;;;;;8.98;1.35;;;;;;;14.57;93.82;100064.50;8292106;28;20297;-49
2022/09/16 06:44:57;;;;;;;12.15;1.23;;;;;;;14.67;93.67;100062.41;8293087;28;20065;-49
2022/09/16 06:48:58;;;;;;;6.50;1.33;;;;;;;14.90;92.67;100068.75;8306656;28;20041;-49
2022/09/16 06:52:58;;;;;;;13.10;1.52;;;;;;;14.92;91.49;100064.00;8300136;28;20041;-49
2022/09/16 06:56:58;;;;;;;4.07;1.13;;;;;;;15.03;92.06;100069.00;8292168;28;20042;-49
2022/09/16 07:01:04;;;;;;;12.38;1.77;;;;;;;15.30;90.08;100062.19;8292219;28;20621;-48
2022/09/16 07:05:05;;;;;;;6.40;1.10;;;;;;;15.84;87.00;100063.78;8292769;28;20112;-52
2022/09/16 07:09:05;;;;;;;7.57;1.50;;;;;;;16.42;86.25;100062.97;8291776;28;20038;-49
2022/09/16 07:13:06;;;;;;;2.83;1.00;;;;;;;16.69;84.37;100060.47;8292028;28;20034;-51
2022/09/16 07:17:07;;;;;;;3.92;1.20;;;;;;;16.59;83.42;100070.78;8292092;28;20042;-49
2022/09/16 07:21:12;;;;;;;6.03;1.42;;;;;;;16.32;85.91;100067.88;8291999;28;20046;-50
2022/09/16 07:25:13;;;;;;;8.88;1.40;;;;;;;16.27;86.17;100064.84;8291371;28;20813;-49
2022/09/16 07:29:16;;;;;;;5.95;1.15;;;;;;;15.74;86.35;100064.03;8291648;28;20038;-51
2022/09/16 07:33:16;;;;;;;9.07;1.75;;;;;;;16.11;87.27;100067.78;8291982;28;20038;-52
2022/09/16 07:37:18;;;;;;;5.28;0.80;;;;;;;16.30;85.33;100069.94;8291264;28;20041;-53
2022/09/16 07:41:21;;;;;;;5.50;1.10;;;;;;;16.40;86.71;100079.53;8289490;28;20046;-52
2022/09/16 07:45:22;;;;;;;8.52;1.08;;;;;;;16.27;86.02;100081.22;8291289;28;20120;-52
2022/09/16 07:49:22;;;;;;;5.15;0.90;;;;;;;16.36;86.52;100074.66;8317015;28;20032;-50
2022/09/16 07:53:23;;;;;;;5.82;1.13;;;;;;;16.12;87.74;100083.09;8324423;28;20037;-50
2022/09/16 07:57:23;;;;;;;6.35;0.80;;;;;;;16.03;86.78;100089.66;8319506;28;20029;-49
2022/09/16 08:01:24;;;;;;;3.30;0.75;;;;;;;16.30;86.48;100091.75;8290459;28;20083;-51
2022/09/16 08:05:24;;;;;;;6.40;0.70;;;;;;;17.01;85.03;100089.19;8290358;28;20111;-49
2022/09/16 08:09:25;;;;;;;3.35;0.65;;;;;;;16.87;82.47;100111.91;8286945;28;20088;-49
2022/09/16 08:13:28;;;;;;;2.83;0.70;;;;;;;17.00;83.65;100109.34;8290417;28;20768;-49
2022/09/16 08:17:28;;;;;;;7.47;1.45;;;;;;;16.92;82.62;100113.03;8289877;28;20057;-51
2022/09/16 08:21:29;;;;;;;7.00;0.77;;;;;;;16.65;82.31;100118.34;8285508;28;20049;-50
2022/09/16 08:25:29;;;;;;;5.32;0.63;;;;;;;16.38;83.27;100118.97;8290678;28;20626;-49
2022/09/16 08:29:30;;;;;;;1.92;0.40;;;;;;;16.63;82.61;100120.41;8289237;28;20033;-49
2022/09/16 08:33:30;;;;;;;4.00;0.50;;;;;;;17.19;79.80;100122.38;8290255;28;20037;-53
2022/09/16 08:37:31;;;;;;;3.28;0.73;;;;;;;17.17;79.65;100129.94;8286164;28;20033;-51
2022/09/16 08:41:45;;;;;;;4.78;0.80;;;;;;;16.86;79.25;100132.03;8290091;28;20042;-49
2022/09/16 08:46:08;;;;;;;;;;;;;;;16.69;79.81;100125.13;8287458;28;20042;-49
2022/09/16 08:50:16;;;;;;;9.05;0.75;;;;;;;16.77;82.16;100130.50;8288893;28;19988;-49
2022/09/16 08:54:36;;;;;;;1.83;0.40;;;;;;;16.76;80.81;100136.97;8284595;28;20029;-51
2022/09/16 08:58:43;;;;;;;4.20;0.47;;;;;;;17.02;81.22;100137.31;8284427;28;20042;-50
2022/09/16 09:03:23;;;;;;;9.30;0.68;;;;;;;17.16;80.47;100133.69;8289640;28;20072;-49
2022/09/16 09:07:55;;;;;;;6.43;0.50;;;;;;;17.33;78.18;100135.16;8307436;28;20063;-49
2022/09/16 09:12:35;;;;;;;3.40;0.40;;;;;;;18.03;75.04;100136.13;8317392;28;20406;-48
2022/09/16 09:16:56;;;;;;;2.92;0.60;;;;;;;18.95;73.67;100130.22;8318026;28;20042;-49
2022/09/16 09:21:24;;;;;;;2.80;0.65;;;;;;;19.29;70.85;100132.94;8319954;28;20052;-49
2022/09/16 09:25:37;;;;;;;3.05;0.40;;;;;;;19.84;69.84;100133.66;8309049;28;20042;-49
2022/09/16 09:29:49;;;;;;;3.15;0.40;;;;;;;18.68;70.62;100128.41;8316659;28;20038;-50
2022/09/16 09:34:30;;;;;;;3.97;0.45;;;;;;;18.44;73.34;100142.56;8318724;28;20120;-50
2022/09/16 09:38:43;;;;;;;3.60;0.43;;;;;;;17.97;75.19;100125.97;8314147;28;20038;-50
2022/09/16 09:42:52;;;;;;;5.70;0.60;;;;;;;17.74;75.63;100128.06;8321841;28;20469;-49
2022/09/16 09:46:56;;;;;;;4.10;0.52;;;;;;;17.39;77.56;100129.75;8327237;28;20088;-49
2022/09/16 09:51:01;;;;;;;4.80;1.08;;;;;;;17.11;78.07;100131.53;8317314;28;20033;-50
2022/09/16 09:55:14;;;;;;;3.58;0.70;;;;;;;17.33;76.63;100124.25;8320405;28;20034;-49
2022/09/16 09:59:29;;;;;;;2.53;0.50;;;;;;;18.36;73.53;100123.50;8305490;28;20045;-48
2022/09/16 10:03:30;;;;;;;3.97;1.05;;;;;;;18.84;72.42;100121.72;8287029;28;20108;-48
2022/09/16 10:07:31;;;;;;;3.35;0.63;;;;;;;18.76;70.50;100125.47;8294166;28;20034;-49
2022/09/16 10:11:32;;;;;;;3.47;0.35;;;;;;;18.44;72.19;100122.53;8292975;28;20087;-49
2022/09/16 10:15:33;;;;;;;4.15;0.60;;;;;;;17.94;74.20;100120.88;8294783;28;20060;-51
2022/09/16 10:19:39;;;;;;;2.78;0.50;;;;;;;18.56;72.46;100124.53;8293414;28;20037;-49
2022/09/16 10:23:40;;;;;;;3.08;0.50;;;;;;;18.92;70.54;100114.19;8294419;28;20044;-49
2022/09/16 10:27:40;;;;;;;3.53;0.70;;;;;;;19.06;70.10;100110.44;8291550;28;20069;-49
2022/09/16 10:31:41;;;;;;;3.38;0.50;;;;;;;18.97;68.99;100117.16;8293144;28;20398;-50
2022/09/16 10:35:53;;;;;;;2.75;0.60;;;;;;;19.35;68.58;100110.16;8293909;28;20061;-49
2022/09/16 10:39:56;;;;;;;2.80;0.43;;;;;;;20.67;62.98;100115.47;8293446;28;20049;-49
2022/09/16 10:44:00;;;;;;;4.55;0.63;;;;;;;22.79;59.22;100114.53;8293902;28;20451;-49
2022/09/16 10:48:06;;;;;;;4.35;0.65;;;;;;;22.54;58.09;100097.19;8297744;28;20033;-49
2022/09/16 10:52:14;;;;;;;3.85;0.50;;;;;;;21.48;60.36;100111.16;8297832;28;20046;-50
2022/09/16 10:56:18;;;;;;;3.00;0.40;;;;;;;21.89;62.70;100100.50;8289502;28;20091;-49
2022/09/16 11:00:22;;;;;;;5.82;0.47;;;;;;;20.25;62.54;100095.91;8292728;28;20057;-50
2022/09/16 11:09:14;;;;;;;3.40;0.57;;;;;;;24.23;55.06;100096.78;8388262;27;20387;-49
2022/09/16 11:13:54;;;;;;;2.53;0.45;;;;;;;24.06;52.75;100095.78;8349592;28;20033;-50
2022/09/16 11:18:19;;;;;;;2.78;0.40;;;;;;;23.56;56.36;100094.44;8345535;28;20048;-47
2022/09/16 11:22:47;;;;;;;3.15;0.47;;;;;;;25.29;51.01;100094.50;8349361;28;20033;-48
2022/09/16 11:31:51;;;;;;;2.28;0.50;;;;;;;20.26;61.48;100094.84;8390857;27;20473;-51
2022/09/16 11:40:50;;;;;;;4.55;0.30;;;;;;;18.17;69.28;100090.56;8374952;27;20448;-47
2022/09/16 11:45:02;;;;;;;3.03;0.55;;;;;;;17.63;73.39;100098.53;8335637;28;20038;-50
2022/09/16 11:53:54;;;;;;;3.38;0.85;;;;;;;16.36;78.86;100129.22;8388608;27;20397;-48
2022/09/16 11:58:00;;;;;;;3.60;0.55;;;;;;;15.98;79.37;100136.56;8365634;28;20060;-48
2022/09/16 12:02:20;;;;;;;2.15;0.82;;;;;;;15.54;87.32;100139.19;8370368;28;20025;-48
2022/09/16 12:06:24;;;;;;;3.55;0.60;;;;;;;14.95;96.56;100131.66;8386568;27;20068;-49
2022/09/16 12:10:31;;;;;;;3.10;0.73;;;;;;;14.67;100.00;100119.53;8380041;27;20044;-49
2022/09/16 12:14:41;;;;;;;3.80;0.70;;;;;;;14.91;100.00;100114.00;8373314;28;20477;-51
2022/09/16 12:18:47;;;;;;;6.90;0.60;;;;;;;15.25;100.00;100117.19;8357160;28;20060;-47
2022/09/16 12:22:53;;;;;;;7.60;0.90;;;;;;;15.77;99.70;100132.88;8344681;28;20045;-48
2022/09/16 12:27:04;;;;;;;2.88;0.50;;;;;;;15.91;94.80;100140.22;8351526;28;20546;-48
2022/09/16 12:31:19;;;;;;;3.80;0.70;;;;;;;15.79;93.77;100142.53;8359857;28;20073;-49
2022/09/16 12:35:30;;;;;;;5.90;0.70;;;;;;;15.23;94.92;100168.28;8378867;27;20049;-48
2022/09/16 12:39:30;;;;;;;5.80;0.40;;;;;;;14.27;97.51;100176.78;8384797;27;20029;-48
2022/09/16 12:43:55;;;;;;;2.00;0.32;;;;;;;13.98;100.00;100181.03;8390056;27;20040;-52
2022/09/16 12:48:22;;;;;;;2.88;0.40;;;;;;;13.89;100.00;100191.06;8397163;27;20045;-48
2022/09/16 12:53:04;;;;;;;0.82;0.20;;;;;;;13.61;96.67;100204.09;8393276;27;20108;-48
2022/09/16 12:57:44;;;;;;;3.10;0.50;;;;;;;13.57;99.56;100207.31;8382317;27;20045;-49
2022/09/16 13:01:49;;;;;;;1.38;0.57;;;;;;;13.20;100.00;100198.75;8383518;27;20453;-48
2022/09/16 13:05:52;;;;;;;1.45;0.30;;;;;;;12.91;100.00;100188.28;8363178;28;20067;-51
2022/09/16 13:10:16;;;;;;;2.55;0.40;;;;;;;12.90;100.00;100174.88;8365674;27;20051;-47
2022/09/16 13:14:22;;;;;;;1.45;0.30;;;;;;;12.82;100.00;100145.00;8381109;27;20443;-49
2022/09/16 13:18:37;;;;;;;1.10;0.30;;;;;;;12.94;100.00;100133.69;8372070;27;20036;-47
2022/09/16 13:22:46;;;;;;;2.80;0.82;;;;;;;13.05;100.00;100129.88;8361180;28;20044;-48
2022/09/16 13:26:46;;;;;;;2.08;0.68;;;;;;;13.23;100.00;100152.28;8370113;27;20041;-51
2022/09/16 13:30:47;;;;;;;3.88;0.45;;;;;;;13.30;100.00;100150.63;8362782;27;20044;-51
2022/09/16 13:34:59;;;;;;;2.10;0.40;;;;;;;13.34;100.00;100168.25;8358395;28;20789;-48
2022/09/16 13:39:04;;;;;;;4.38;0.55;;;;;;;13.50;100.00;100173.72;8392519;27;20040;-49
2022/09/16 13:43:13;;;;;;;2.60;0.40;;;;;;;14.01;100.00;100161.66;8372903;27;20041;-47
2022/09/16 13:47:17;;;;;;;2.17;0.40;;;;;;;14.56;100.00;100177.06;8377901;27;20402;-48
2022/09/16 13:51:20;;;;;;;0.73;0.40;;;;;;;14.97;97.59;100167.72;8388446;27;20117;-49
2022/09/16 13:55:25;;;;;;;1.23;0.38;;;;;;;15.15;97.29;100176.50;8348016;28;20045;-47
2022/09/16 14:04:03;;;;;;;2.72;0.40;;;;;;;15.20;95.57;100162.34;8317314;28;20389;-48
2022/09/16 14:12:59;;;;;;;1.83;0.32;;;;;;;15.46;91.07;100173.78;8346812;27;20922;-51
2022/09/16 14:17:04;;;;;;;3.70;0.63;;;;;;;15.30;90.51;100173.84;8349111;28;20056;-50
2022/09/16 14:21:16;;;;;;;2.15;0.30;;;;;;;15.33;90.99;100168.03;8359492;28;20047;-50
2022/09/16 14:25:35;;;;;;;3.22;0.60;;;;;;;15.69;88.11;100158.31;8361948;28;20039;-50
2022/09/16 14:29:35;;;;;;;1.02;0.40;;;;;;;15.54;89.42;100141.91;8357753;28;20054;-52
2022/09/16 14:33:40;;;;;;;1.55;0.40;;;;;;;16.06;90.36;100143.84;8352642;28;20517;-51
2022/09/16 14:37:44;;;;;;;3.47;0.85;;;;;;;16.18;88.02;100128.72;8340518;28;20047;-53
2022/09/16 14:41:51;;;;;;;3.10;0.50;;;;;;;15.96;88.82;100129.63;8382278;28;20042;-49
2022/09/16 14:45:57;;;;;;;2.80;0.52;;;;;;;15.84;88.51;100120.19;8371414;28;20068;-50
2022/09/16 14:50:07;;;;;;;4.63;0.40;;;;;;;15.76;90.04;100131.19;8361891;28;20044;-54
2022/09/16 14:54:18;;;;;;;3.13;0.70;;;;;;;15.73;93.91;100130.50;8354606;28;20408;-51
2022/09/16 14:58:20;;;;;;;3.50;0.50;;;;;;;15.35;90.54;100139.63;8347983;28;20033;-54
2022/09/16 15:02:36;;;;;;;2.47;0.30;;;;;;;15.09;91.71;100149.97;8371557;28;20033;-53
2022/09/16 15:06:45;;;;;;;0.95;0.25;;;;;;;14.89;91.63;100143.28;8368224;28;20388;-50
2022/09/16 15:10:48;;;;;;;2.03;0.60;;;;;;;14.92;92.37;100148.38;8383171;28;20490;-52
2022/09/16 15:14:48;;;;;;;1.55;0.40;;;;;;;14.80;94.63;100140.78;8381727;28;20128;-49
2022/09/16 15:19:05;;;;;;;3.40;0.60;;;;;;;14.57;94.63;100137.97;8376812;28;20502;-50
2022/09/16 15:23:16;;;;;;;1.88;0.35;;;;;;;14.43;96.74;100126.97;8360116;28;20048;-52
2022/09/16 15:27:28;;;;;;;2.60;0.50;;;;;;;14.43;92.67;100141.41;8354390;28;20547;-51
2022/09/16 15:31:35;;;;;;;1.85;0.30;;;;;;;14.30;92.21;100143.81;8347015;28;20041;-51
2022/09/16 15:35:36;;;;;;;0.47;0.38;;;;;;;14.18;93.70;100149.78;8362834;28;20033;-51
2022/09/16 15:39:38;;;;;;;1.92;0.40;;;;;;;13.93;94.60;100153.53;8355402;28;20074;-51
2022/09/16 15:43:41;;;;;;;1.98;0.57;;;;;;;13.81;97.92;100145.72;8357891;28;20128;-50
2022/09/16 15:48:00;;;;;;;4.33;0.63;;;;;;;13.59;99.19;100145.53;8356981;28;20402;-50
2022/09/16 15:52:07;;;;;;;3.35;0.40;;;;;;;13.44;98.96;100147.22;8357802;28;20128;-51
2022/09/16 15:56:22;;;;;;;5.95;0.63;;;;;;;13.38;98.23;100147.88;8359603;28;20406;-52
2022/09/16 16:00:22;;;;;;;1.52;0.40;;;;;;;13.24;97.53;100148.56;8348255;28;20036;-49
2022/09/16 16:04:27;;;;;;;0.85;0.40;;;;;;;13.45;95.75;100143.50;8359410;28;20032;-51
2022/09/16 16:08:50;;;;;;;2.28;0.57;;;;;;;13.83;94.57;100142.84;8358923;28;20037;-53
2022/09/16 16:12:53;;;;;;;0.75;0.40;;;;;;;13.93;92.15;100148.94;8358546;28;20052;-50
2022/09/16 16:16:54;;;;;;;1.10;0.30;;;;;;;13.81;89.44;100143.00;8358257;28;20052;-53
2022/09/16 16:20:54;;;;;;;2.65;0.30;;;;;;;13.85;91.05;100148.97;8358234;28;20092;-53
2022/09/16 16:24:54;;;;;;;1.37;0.27;;;;;;;13.91;91.40;100145.56;8348744;28;20037;-50
2022/09/16 16:28:55;;;;;;;1.70;0.30;;;;;;;13.95;89.43;100157.78;8348418;28;20271;-50
2022/09/16 16:32:55;;;;;;;3.10;0.30;;;;;;;13.81;88.24;100151.16;8339133;28;20052;-52
2022/09/16 16:36:56;;;;;;;2.60;0.52;;;;;;;13.74;89.71;100154.72;8345799;28;20068;-54
2022/09/16 16:40:56;;;;;;;6.05;0.65;;;;;;;13.66;90.80;100169.16;8336560;28;20037;-51
2022/09/16 16:44:57;;;;;;;2.63;0.47;;;;;;;13.53;91.51;100167.94;8342050;28;20362;-51
2022/09/16 16:48:57;;;;;;;3.55;0.40;;;;;;;13.39;93.93;100165.91;8339815;28;20052;-49
2022/09/16 16:52:58;;;;;;;1.17;0.40;;;;;;;13.24;97.28;100167.56;8347373;28;20061;-52
2022/09/16 16:56:59;;;;;;;3.72;1.20;;;;;;;13.10;99.14;100176.34;8332496;28;20401;-50
2022/09/16 17:01:16;;;;;;;1.70;0.73;;;;;;;13.01;99.05;100169.19;8323373;28;20033;-52
2022/09/16 17:05:17;;;;;;;5.13;1.05;;;;;;;13.00;98.99;100171.06;8325600;28;20088;-52
2022/09/16 17:09:17;;;;;;;3.65;0.77;;;;;;;13.00;99.54;100167.50;8324174;28;20041;-50
2022/09/16 17:13:18;;;;;;;2.83;0.60;;;;;;;13.01;100.00;100183.59;8335147;28;20151;-53
2022/09/16 17:17:18;;;;;;;4.72;0.90;;;;;;;12.91;100.00;100182.00;8325900;28;20041;-49
2022/09/16 17:21:24;;;;;;;1.48;0.47;;;;;;;12.78;100.00;100181.63;8349685;28;20297;-52
2022/09/16 17:25:24;;;;;;;1.25;0.73;;;;;;;12.72;100.00;100187.69;8324587;28;20041;-53
2022/09/16 17:29:25;;;;;;;6.05;1.00;;;;;;;12.71;100.00;100186.84;8352066;28;20047;-52
2022/09/16 17:33:25;;;;;;;3.05;0.88;;;;;;;12.64;100.00;100184.94;8336258;28;20128;-50
2022/09/16 17:37:25;;;;;;;3.10;0.98;;;;;;;12.56;100.00;100190.34;8311676;28;20053;-52
2022/09/16 17:41:27;;;;;;;3.63;1.13;;;;;;;12.52;100.00;100187.06;8345655;28;20029;-49
2022/09/16 17:45:27;;;;;;;2.90;1.10;;;;;;;12.46;100.00;100186.84;8316986;28;20034;-51
2022/09/16 17:49:28;;;;;;;4.20;1.15;;;;;;;12.43;100.00;100195.31;8346005;28;20068;-51
2022/09/16 17:53:28;;;;;;;9.27;1.83;;;;;;;12.39;100.00;100207.50;8328138;28;20068;-53
2022/09/16 17:57:30;;;;;;;4.63;1.80;;;;;;;12.31;100.00;100191.16;8323891;28;20061;-52
2022/09/16 18:01:30;;;;;;;5.28;1.27;;;;;;;12.29;100.00;100190.50;8290757;28;20470;-50
2022/09/16 18:05:32;;;;;;;2.42;1.55;;;;;;;12.28;100.00;100194.19;8298026;28;20353;-50
2022/09/16 18:09:33;;;;;;;4.13;1.33;;;;;;;12.29;100.00;100193.22;8301816;28;20049;-50
2022/09/16 18:13:34;;;;;;;5.80;1.75;;;;;;;12.31;100.00;100204.72;8295369;28;20507;-51
2022/09/16 18:17:35;;;;;;;4.40;1.52;;;;;;;12.25;100.00;100205.34;8296459;28;20183;-51
2022/09/16 18:21:36;;;;;;;11.73;3.53;;;;;;;12.18;100.00;100209.72;8300540;28;20546;-50
2022/09/16 18:25:37;;;;;;;5.85;2.38;;;;;;;12.18;100.00;100210.56;8320499;28;20038;-49
2022/09/16 18:29:39;;;;;;;6.10;1.88;;;;;;;12.20;100.00;100210.41;8328782;28;20041;-50
2022/09/16 18:33:40;;;;;;;4.55;2.00;;;;;;;12.14;100.00;100219.19;8327231;28;20518;-52
2022/09/16 18:37:40;;;;;;;4.53;1.92;;;;;;;12.10;100.00;100223.22;8316144;28;20052;-51
2022/09/16 18:41:43;;;;;;;6.55;1.58;;;;;;;12.08;100.00;100227.94;8342682;28;20486;-49
2022/09/16 18:45:44;;;;;;;4.43;1.70;;;;;;;12.16;100.00;100223.44;8332553;28;20044;-53
2022/09/16 18:49:44;;;;;;;6.40;1.17;;;;;;;12.08;100.00;100226.09;8321535;28;20042;-51
2022/09/16 18:53:46;;;;;;;5.13;1.40;;;;;;;12.02;100.00;100226.72;8316098;28;20050;-51
2022/09/16 18:57:46;;;;;;;4.60;0.90;;;;;;;12.07;100.00;100223.53;8325819;28;20099;-50
2022/09/16 19:01:47;;;;;;;7.07;2.08;;;;;;;12.15;100.00;100220.88;8326125;28;20037;-52
2022/09/16 19:05:55;;;;;;;3.22;1.23;;;;;;;12.18;100.00;100225.97;8324407;28;20041;-50
2022/09/16 19:09:55;;;;;;;3.70;1.33;;;;;;;12.20;100.00;100221.25;8311187;28;20523;-53
2022/09/16 19:13:56;;;;;;;5.28;1.20;;;;;;;12.19;100.00;100227.66;8319202;28;20713;-50
2022/09/16 19:17:57;;;;;;;5.70;1.25;;;;;;;12.13;100.00;100222.91;8330680;28;20057;-52
2022/09/16 19:21:58;;;;;;;6.30;1.00;;;;;;;12.17;100.00;100241.38;8325148;28;20099;-50
2022/09/16 19:26:01;;;;;;;7.30;1.08;;;;;;;12.18;100.00;100236.81;8329888;28;20427;-50
2022/09/16 19:30:02;;;;;;;7.03;1.33;;;;;;;12.13;100.00;100242.72;8341500;28;20186;-51
2022/09/16 19:34:04;;;;;;;7.07;1.58;;;;;;;12.08;100.00;100238.78;8347073;28;20041;-52